Terminal Aerodrome Forecast
Issued by NWS

Home | Current Version | Previous Version | Text Only | Print | Product List | Glossary On
Versions: 1 2 3 4 5 6 7 8 9 10 11 12 13 14 15 16 17 18
000
FTUS41 KGYX 252334
TAFHIE
TAF
KHIE 252334Z 2600/2624 VRB03KT P6SM -SHRA SCT060 OVC080
      TEMPO 2600/2604 4SM -RA BR SCT030 BKN060 OVC080
     FM260400 VRB03KT 3SM -SHRA BR SCT025 OVC060
     FM260800 VRB03KT 4SM BR BKN025 OVC040
     FM261200 25007KT P6SM SCT050 BKN080 OVC120
     FM261500 26010KT P6SM SCT100 BKN150=

USA.gov is the U.S. government's official web portal to all federal, state and local government web resources and services.